sensor_id;sensor_type;location;lat;lon;timestamp;P1;durP1;ratioP1;P2;durP2;ratioP2
63087;SDS011;49173;43.164;27.786;2022-07-29T00:00:15;4.95;;;3.03;;
63087;SDS011;49173;43.164;27.786;2022-07-29T00:03:01;5.20;;;3.03;;
63087;SDS011;49173;43.164;27.786;2022-07-29T00:05:28;5.82;;;2.97;;
63087;SDS011;49173;43.164;27.786;2022-07-29T00:07:54;3.58;;;2.75;;
63087;SDS011;49173;43.164;27.786;2022-07-29T00:10:19;3.63;;;2.60;;
63087;SDS011;49173;43.164;27.786;2022-07-29T00:12:45;5.53;;;2.58;;
63087;SDS011;49173;43.164;27.786;2022-07-29T00:15:12;4.05;;;2.78;;
63087;SDS011;49173;43.164;27.786;2022-07-29T00:17:38;6.90;;;2.80;;
63087;SDS011;49173;43.164;27.786;2022-07-29T00:20:04;5.53;;;2.80;;
63087;SDS011;49173;43.164;27.786;2022-07-29T00:22:31;7.60;;;3.03;;
63087;SDS011;49173;43.164;27.786;2022-07-29T00:24:57;5.38;;;2.78;;
63087;SDS011;49173;43.164;27.786;2022-07-29T00:27:22;5.53;;;2.95;;
63087;SDS011;49173;43.164;27.786;2022-07-29T00:29:48;4.95;;;3.08;;
63087;SDS011;49173;43.164;27.786;2022-07-29T00:32:14;4.20;;;2.65;;
63087;SDS011;49173;43.164;27.786;2022-07-29T00:34:41;4.95;;;2.83;;
63087;SDS011;49173;43.164;27.786;2022-07-29T00:37:25;4.80;;;2.70;;
63087;SDS011;49173;43.164;27.786;2022-07-29T00:39:51;4.72;;;2.78;;
63087;SDS011;49173;43.164;27.786;2022-07-29T00:42:17;5.15;;;3.00;;
63087;SDS011;49173;43.164;27.786;2022-07-29T00:44:42;6.70;;;2.85;;
63087;SDS011;49173;43.164;27.786;2022-07-29T00:47:09;8.18;;;3.08;;
63087;SDS011;49173;43.164;27.786;2022-07-29T00:49:37;6.35;;;3.05;;
63087;SDS011;49173;43.164;27.786;2022-07-29T00:52:04;7.20;;;2.88;;
63087;SDS011;49173;43.164;27.786;2022-07-29T00:54:32;5.22;;;3.00;;
63087;SDS011;49173;43.164;27.786;2022-07-29T00:56:58;5.85;;;3.00;;
63087;SDS011;49173;43.164;27.786;2022-07-29T00:59:26;3.78;;;2.53;;
63087;SDS011;49173;43.164;27.786;2022-07-29T01:01:53;6.07;;;2.78;;
63087;SDS011;49173;43.164;27.786;2022-07-29T01:04:20;4.82;;;2.63;;
63087;SDS011;49173;43.164;27.786;2022-07-29T01:06:47;4.55;;;2.90;;
63087;SDS011;49173;43.164;27.786;2022-07-29T01:09:14;6.63;;;2.78;;
63087;SDS011;49173;43.164;27.786;2022-07-29T01:11:43;6.43;;;3.10;;
63087;SDS011;49173;43.164;27.786;2022-07-29T01:14:11;6.90;;;3.10;;
63087;SDS011;49173;43.164;27.786;2022-07-29T01:17:00;4.90;;;2.95;;
63087;SDS011;49173;43.164;27.786;2022-07-29T01:22:35;5.28;;;3.42;;
63087;SDS011;49173;43.164;27.786;2022-07-29T01:30:25;4.93;;;3.17;;
63087;SDS011;49173;43.164;27.786;2022-07-29T01:32:56;7.47;;;3.45;;
63087;SDS011;49173;43.164;27.786;2022-07-29T01:35:28;5.10;;;3.63;;
63087;SDS011;49173;43.164;27.786;2022-07-29T01:40:34;5.50;;;3.67;;
63087;SDS011;49173;43.164;27.786;2022-07-29T01:43:03;7.45;;;3.30;;
63087;SDS011;49173;43.164;27.786;2022-07-29T01:45:39;7.30;;;3.47;;
63087;SDS011;49173;43.164;27.786;2022-07-29T01:48:11;4.78;;;3.58;;
63087;SDS011;49173;43.164;27.786;2022-07-29T01:50:52;6.97;;;3.25;;
63087;SDS011;49173;43.164;27.786;2022-07-29T01:53:31;6.97;;;3.55;;
63087;SDS011;49173;43.164;27.786;2022-07-29T01:56:16;6.72;;;3.83;;
63087;SDS011;49173;43.164;27.786;2022-07-29T01:58:43;6.35;;;3.70;;
63087;SDS011;49173;43.164;27.786;2022-07-29T02:01:10;7.47;;;3.33;;
63087;SDS011;49173;43.164;27.786;2022-07-29T02:03:38;4.63;;;3.28;;
63087;SDS011;49173;43.164;27.786;2022-07-29T02:06:09;6.10;;;3.47;;
63087;SDS011;49173;43.164;27.786;2022-07-29T02:08:36;4.90;;;3.55;;
63087;SDS011;49173;43.164;27.786;2022-07-29T02:11:04;5.60;;;3.58;;
63087;SDS011;49173;43.164;27.786;2022-07-29T02:13:32;13.15;;;4.32;;
63087;SDS011;49173;43.164;27.786;2022-07-29T02:16:01;8.93;;;4.38;;
63087;SDS011;49173;43.164;27.786;2022-07-29T02:18:30;4.78;;;4.10;;
63087;SDS011;49173;43.164;27.786;2022-07-29T02:20:56;10.57;;;4.15;;
63087;SDS011;49173;43.164;27.786;2022-07-29T02:23:24;8.18;;;4.45;;
63087;SDS011;49173;43.164;27.786;2022-07-29T02:25:52;10.23;;;4.88;;
63087;SDS011;49173;43.164;27.786;2022-07-29T02:28:20;8.90;;;5.22;;
63087;SDS011;49173;43.164;27.786;2022-07-29T02:30:52;14.02;;;5.40;;
63087;SDS011;49173;43.164;27.786;2022-07-29T02:33:20;10.20;;;5.70;;
63087;SDS011;49173;43.164;27.786;2022-07-29T02:35:49;10.50;;;6.05;;
63087;SDS011;49173;43.164;27.786;2022-07-29T02:38:16;14.57;;;5.85;;
63087;SDS011;49173;43.164;27.786;2022-07-29T02:41:03;12.93;;;6.53;;
63087;SDS011;49173;43.164;27.786;2022-07-29T02:43:36;12.23;;;6.97;;
63087;SDS011;49173;43.164;27.786;2022-07-29T02:46:06;15.90;;;7.72;;
63087;SDS011;49173;43.164;27.786;2022-07-29T02:48:37;10.98;;;7.40;;
63087;SDS011;49173;43.164;27.786;2022-07-29T02:51:08;16.88;;;7.60;;
63087;SDS011;49173;43.164;27.786;2022-07-29T02:53:41;11.80;;;8.07;;
63087;SDS011;49173;43.164;27.786;2022-07-29T02:56:11;11.88;;;7.93;;
63087;SDS011;49173;43.164;27.786;2022-07-29T02:58:45;13.73;;;7.47;;
63087;SDS011;49173;43.164;27.786;2022-07-29T03:01:24;10.63;;;7.85;;
63087;SDS011;49173;43.164;27.786;2022-07-29T03:03:54;11.85;;;7.32;;
63087;SDS011;49173;43.164;27.786;2022-07-29T03:06:22;13.63;;;7.80;;
63087;SDS011;49173;43.164;27.786;2022-07-29T03:08:50;13.45;;;7.20;;
63087;SDS011;49173;43.164;27.786;2022-07-29T03:11:17;18.25;;;7.53;;
63087;SDS011;49173;43.164;27.786;2022-07-29T03:13:44;15.88;;;8.27;;
63087;SDS011;49173;43.164;27.786;2022-07-29T03:16:10;11.30;;;8.50;;
63087;SDS011;49173;43.164;27.786;2022-07-29T03:18:38;16.20;;;8.02;;
63087;SDS011;49173;43.164;27.786;2022-07-29T03:21:04;16.20;;;8.52;;
63087;SDS011;49173;43.164;27.786;2022-07-29T03:23:30;25.52;;;9.77;;
63087;SDS011;49173;43.164;27.786;2022-07-29T03:25:56;24.05;;;8.50;;
63087;SDS011;49173;43.164;27.786;2022-07-29T03:28:22;19.30;;;8.48;;
63087;SDS011;49173;43.164;27.786;2022-07-29T03:30:49;21.15;;;9.30;;
63087;SDS011;49173;43.164;27.786;2022-07-29T03:33:15;18.05;;;8.85;;
63087;SDS011;49173;43.164;27.786;2022-07-29T03:35:41;13.52;;;8.55;;
63087;SDS011;49173;43.164;27.786;2022-07-29T03:38:07;11.40;;;8.45;;
63087;SDS011;49173;43.164;27.786;2022-07-29T03:40:44;10.45;;;7.95;;
63087;SDS011;49173;43.164;27.786;2022-07-29T03:43:14;15.05;;;8.02;;
63087;SDS011;49173;43.164;27.786;2022-07-29T03:45:48;12.07;;;8.17;;
63087;SDS011;49173;43.164;27.786;2022-07-29T03:48:19;11.98;;;8.60;;
63087;SDS011;49173;43.164;27.786;2022-07-29T03:50:47;13.25;;;8.27;;
63087;SDS011;49173;43.164;27.786;2022-07-29T03:53:15;14.27;;;7.35;;
63087;SDS011;49173;43.164;27.786;2022-07-29T03:55:43;11.15;;;7.22;;
63087;SDS011;49173;43.164;27.786;2022-07-29T03:58:12;11.63;;;6.32;;
63087;SDS011;49173;43.164;27.786;2022-07-29T04:00:38;14.27;;;6.22;;
63087;SDS011;49173;43.164;27.786;2022-07-29T04:03:07;11.90;;;6.50;;
63087;SDS011;49173;43.164;27.786;2022-07-29T04:05:34;11.05;;;5.57;;
63087;SDS011;49173;43.164;27.786;2022-07-29T04:08:00;12.00;;;5.55;;
63087;SDS011;49173;43.164;27.786;2022-07-29T04:10:26;10.15;;;5.60;;
63087;SDS011;49173;43.164;27.786;2022-07-29T04:12:52;10.52;;;5.55;;
63087;SDS011;49173;43.164;27.786;2022-07-29T04:15:18;12.60;;;5.43;;
63087;SDS011;49173;43.164;27.786;2022-07-29T04:17:44;15.80;;;6.03;;
63087;SDS011;49173;43.164;27.786;2022-07-29T04:20:10;13.45;;;5.72;;
63087;SDS011;49173;43.164;27.786;2022-07-29T04:22:38;11.57;;;5.77;;
63087;SDS011;49173;43.164;27.786;2022-07-29T04:25:06;14.43;;;5.40;;
63087;SDS011;49173;43.164;27.786;2022-07-29T04:27:32;9.48;;;5.75;;
63087;SDS011;49173;43.164;27.786;2022-07-29T04:29:58;14.82;;;5.60;;
63087;SDS011;49173;43.164;27.786;2022-07-29T04:32:25;10.57;;;5.80;;
63087;SDS011;49173;43.164;27.786;2022-07-29T04:34:52;13.25;;;5.80;;
63087;SDS011;49173;43.164;27.786;2022-07-29T04:37:17;22.73;;;6.00;;
63087;SDS011;49173;43.164;27.786;2022-07-29T04:39:43;12.73;;;5.53;;
63087;SDS011;49173;43.164;27.786;2022-07-29T04:42:09;24.15;;;13.52;;
63087;SDS011;49173;43.164;27.786;2022-07-29T04:44:35;46.60;;;26.40;;
63087;SDS011;49173;43.164;27.786;2022-07-29T04:47:01;20.55;;;9.20;;
63087;SDS011;49173;43.164;27.786;2022-07-29T04:49:26;11.45;;;7.22;;
63087;SDS011;49173;43.164;27.786;2022-07-29T04:51:52;12.80;;;5.35;;
63087;SDS011;49173;43.164;27.786;2022-07-29T04:54:18;12.38;;;5.20;;
63087;SDS011;49173;43.164;27.786;2022-07-29T04:56:44;8.20;;;4.43;;
63087;SDS011;49173;43.164;27.786;2022-07-29T04:59:11;11.32;;;4.57;;
63087;SDS011;49173;43.164;27.786;2022-07-29T05:01:37;8.15;;;4.47;;
63087;SDS011;49173;43.164;27.786;2022-07-29T05:04:03;11.82;;;4.40;;
63087;SDS011;49173;43.164;27.786;2022-07-29T05:06:29;9.73;;;4.43;;
63087;SDS011;49173;43.164;27.786;2022-07-29T05:08:54;5.88;;;4.20;;
63087;SDS011;49173;43.164;27.786;2022-07-29T05:11:20;10.68;;;3.92;;
63087;SDS011;49173;43.164;27.786;2022-07-29T05:13:46;8.60;;;3.90;;
63087;SDS011;49173;43.164;27.786;2022-07-29T05:16:12;8.68;;;4.05;;
63087;SDS011;49173;43.164;27.786;2022-07-29T05:18:38;5.97;;;3.67;;
63087;SDS011;49173;43.164;27.786;2022-07-29T05:21:04;7.45;;;3.90;;
63087;SDS011;49173;43.164;27.786;2022-07-29T05:23:30;11.25;;;3.95;;
63087;SDS011;49173;43.164;27.786;2022-07-29T05:25:56;22.60;;;10.88;;
63087;SDS011;49173;43.164;27.786;2022-07-29T05:28:22;190.50;;;90.97;;
63087;SDS011;49173;43.164;27.786;2022-07-29T05:30:47;83.15;;;45.22;;
63087;SDS011;49173;43.164;27.786;2022-07-29T05:33:14;67.03;;;41.38;;
63087;SDS011;49173;43.164;27.786;2022-07-29T05:35:40;37.97;;;33.95;;
63087;SDS011;49173;43.164;27.786;2022-07-29T05:38:06;13.48;;;8.18;;
63087;SDS011;49173;43.164;27.786;2022-07-29T05:40:32;9.10;;;5.95;;
63087;SDS011;49173;43.164;27.786;2022-07-29T05:43:01;10.27;;;5.30;;
63087;SDS011;49173;43.164;27.786;2022-07-29T05:45:26;8.45;;;4.55;;
63087;SDS011;49173;43.164;27.786;2022-07-29T05:47:52;16.00;;;4.60;;
63087;SDS011;49173;43.164;27.786;2022-07-29T05:50:18;8.18;;;3.20;;
63087;SDS011;49173;43.164;27.786;2022-07-29T05:52:44;5.22;;;3.00;;
63087;SDS011;49173;43.164;27.786;2022-07-29T05:55:09;7.18;;;3.20;;
63087;SDS011;49173;43.164;27.786;2022-07-29T05:57:35;4.47;;;2.83;;
63087;SDS011;49173;43.164;27.786;2022-07-29T06:00:01;6.22;;;2.83;;
63087;SDS011;49173;43.164;27.786;2022-07-29T06:02:27;5.60;;;3.40;;
63087;SDS011;49173;43.164;27.786;2022-07-29T06:04:53;10.82;;;4.43;;
63087;SDS011;49173;43.164;27.786;2022-07-29T06:07:19;9.85;;;2.58;;
63087;SDS011;49173;43.164;27.786;2022-07-29T06:09:45;6.45;;;3.58;;
63087;SDS011;49173;43.164;27.786;2022-07-29T06:12:10;13.20;;;3.78;;
63087;SDS011;49173;43.164;27.786;2022-07-29T06:14:36;7.00;;;3.00;;
63087;SDS011;49173;43.164;27.786;2022-07-29T06:17:03;3.65;;;2.35;;
63087;SDS011;49173;43.164;27.786;2022-07-29T06:19:30;6.03;;;3.08;;
63087;SDS011;49173;43.164;27.786;2022-07-29T06:21:56;9.05;;;3.08;;
63087;SDS011;49173;43.164;27.786;2022-07-29T06:24:22;7.90;;;2.85;;
63087;SDS011;49173;43.164;27.786;2022-07-29T06:26:48;8.93;;;2.42;;
63087;SDS011;49173;43.164;27.786;2022-07-29T06:29:13;6.38;;;2.85;;
63087;SDS011;49173;43.164;27.786;2022-07-29T06:31:39;8.40;;;3.38;;
63087;SDS011;49173;43.164;27.786;2022-07-29T06:34:05;7.43;;;2.60;;
63087;SDS011;49173;43.164;27.786;2022-07-29T06:36:34;8.77;;;2.70;;
63087;SDS011;49173;43.164;27.786;2022-07-29T06:39:03;4.85;;;2.38;;
63087;SDS011;49173;43.164;27.786;2022-07-29T06:43:55;9.15;;;2.88;;
63087;SDS011;49173;43.164;27.786;2022-07-29T06:46:21;4.80;;;2.60;;
63087;SDS011;49173;43.164;27.786;2022-07-29T06:48:48;7.50;;;2.60;;
63087;SDS011;49173;43.164;27.786;2022-07-29T06:51:14;5.07;;;2.50;;
63087;SDS011;49173;43.164;27.786;2022-07-29T06:53:40;7.90;;;2.72;;
63087;SDS011;49173;43.164;27.786;2022-07-29T06:56:06;5.45;;;2.55;;
63087;SDS011;49173;43.164;27.786;2022-07-29T06:58:37;4.28;;;2.60;;
63087;SDS011;49173;43.164;27.786;2022-07-29T07:01:04;11.48;;;2.50;;
63087;SDS011;49173;43.164;27.786;2022-07-29T07:03:31;4.47;;;2.45;;
63087;SDS011;49173;43.164;27.786;2022-07-29T07:05:57;7.43;;;2.35;;
63087;SDS011;49173;43.164;27.786;2022-07-29T07:08:23;6.22;;;2.60;;
63087;SDS011;49173;43.164;27.786;2022-07-29T07:10:49;7.93;;;2.60;;
63087;SDS011;49173;43.164;27.786;2022-07-29T07:13:15;7.70;;;2.70;;
63087;SDS011;49173;43.164;27.786;2022-07-29T07:15:42;5.78;;;2.50;;
63087;SDS011;49173;43.164;27.786;2022-07-29T07:18:09;4.70;;;2.35;;
63087;SDS011;49173;43.164;27.786;2022-07-29T07:20:35;12.60;;;2.63;;
63087;SDS011;49173;43.164;27.786;2022-07-29T07:23:02;7.30;;;2.50;;
63087;SDS011;49173;43.164;27.786;2022-07-29T07:25:28;7.72;;;2.45;;
63087;SDS011;49173;43.164;27.786;2022-07-29T07:27:54;5.43;;;2.40;;
63087;SDS011;49173;43.164;27.786;2022-07-29T07:30:20;5.15;;;2.30;;
63087;SDS011;49173;43.164;27.786;2022-07-29T07:32:46;6.75;;;2.30;;
63087;SDS011;49173;43.164;27.786;2022-07-29T07:35:14;6.10;;;2.08;;
63087;SDS011;49173;43.164;27.786;2022-07-29T07:37:41;5.10;;;2.40;;
63087;SDS011;49173;43.164;27.786;2022-07-29T07:40:09;7.00;;;2.50;;
63087;SDS011;49173;43.164;27.786;2022-07-29T07:42:39;6.07;;;2.35;;
63087;SDS011;49173;43.164;27.786;2022-07-29T07:45:08;5.18;;;2.53;;
63087;SDS011;49173;43.164;27.786;2022-07-29T07:47:38;3.80;;;2.65;;
63087;SDS011;49173;43.164;27.786;2022-07-29T07:50:06;4.35;;;2.60;;
63087;SDS011;49173;43.164;27.786;2022-07-29T07:55:02;3.67;;;2.55;;
63087;SDS011;49173;43.164;27.786;2022-07-29T07:57:28;8.45;;;2.42;;
63087;SDS011;49173;43.164;27.786;2022-07-29T07:59:57;6.10;;;2.45;;
63087;SDS011;49173;43.164;27.786;2022-07-29T08:02:25;4.32;;;2.60;;
63087;SDS011;49173;43.164;27.786;2022-07-29T08:04:51;5.15;;;2.47;;
63087;SDS011;49173;43.164;27.786;2022-07-29T08:07:22;7.18;;;2.58;;
63087;SDS011;49173;43.164;27.786;2022-07-29T08:09:51;7.80;;;2.10;;
63087;SDS011;49173;43.164;27.786;2022-07-29T08:12:18;4.47;;;2.42;;
63087;SDS011;49173;43.164;27.786;2022-07-29T08:14:45;3.35;;;2.10;;
63087;SDS011;49173;43.164;27.786;2022-07-29T08:17:13;6.25;;;2.50;;
63087;SDS011;49173;43.164;27.786;2022-07-29T08:19:42;4.50;;;2.30;;
63087;SDS011;49173;43.164;27.786;2022-07-29T08:22:10;6.55;;;2.20;;
63087;SDS011;49173;43.164;27.786;2022-07-29T08:24:37;4.10;;;1.90;;
63087;SDS011;49173;43.164;27.786;2022-07-29T08:27:12;4.78;;;2.00;;
63087;SDS011;49173;43.164;27.786;2022-07-29T08:29:39;7.05;;;2.30;;
63087;SDS011;49173;43.164;27.786;2022-07-29T08:32:06;17.83;;;2.60;;
63087;SDS011;49173;43.164;27.786;2022-07-29T08:34:34;6.30;;;2.33;;
63087;SDS011;49173;43.164;27.786;2022-07-29T08:37:01;4.57;;;2.08;;
63087;SDS011;49173;43.164;27.786;2022-07-29T08:39:28;6.80;;;2.25;;
63087;SDS011;49173;43.164;27.786;2022-07-29T08:41:56;4.38;;;1.90;;
63087;SDS011;49173;43.164;27.786;2022-07-29T08:44:23;5.05;;;2.10;;
63087;SDS011;49173;43.164;27.786;2022-07-29T08:46:51;5.20;;;2.45;;
63087;SDS011;49173;43.164;27.786;2022-07-29T08:49:17;7.53;;;2.00;;
63087;SDS011;49173;43.164;27.786;2022-07-29T08:51:44;4.43;;;2.08;;
63087;SDS011;49173;43.164;27.786;2022-07-29T08:54:11;5.68;;;2.28;;
63087;SDS011;49173;43.164;27.786;2022-07-29T08:56:48;4.18;;;2.10;;
63087;SDS011;49173;43.164;27.786;2022-07-29T08:59:17;5.82;;;1.95;;
63087;SDS011;49173;43.164;27.786;2022-07-29T09:01:47;3.72;;;2.20;;
63087;SDS011;49173;43.164;27.786;2022-07-29T09:04:16;5.88;;;2.97;;
63087;SDS011;49173;43.164;27.786;2022-07-29T09:06:46;5.72;;;3.00;;
63087;SDS011;49173;43.164;27.786;2022-07-29T09:09:17;4.55;;;2.92;;
63087;SDS011;49173;43.164;27.786;2022-07-29T09:11:43;5.07;;;3.15;;
63087;SDS011;49173;43.164;27.786;2022-07-29T09:14:12;5.85;;;3.50;;
63087;SDS011;49173;43.164;27.786;2022-07-29T09:17:13;7.80;;;3.28;;
63087;SDS011;49173;43.164;27.786;2022-07-29T09:19:34;9.05;;;3.30;;
63087;SDS011;49173;43.164;27.786;2022-07-29T09:22:06;8.75;;;3.05;;
63087;SDS011;49173;43.164;27.786;2022-07-29T09:29:46;3.63;;;2.35;;
63087;SDS011;49173;43.164;27.786;2022-07-29T09:32:22;4.70;;;2.60;;
63087;SDS011;49173;43.164;27.786;2022-07-29T09:34:49;5.20;;;2.45;;
63087;SDS011;49173;43.164;27.786;2022-07-29T09:37:27;7.40;;;2.50;;
63087;SDS011;49173;43.164;27.786;2022-07-29T09:39:55;7.28;;;2.17;;
63087;SDS011;49173;43.164;27.786;2022-07-29T09:42:28;8.98;;;2.63;;
63087;SDS011;49173;43.164;27.786;2022-07-29T09:45:00;8.40;;;2.92;;
63087;SDS011;49173;43.164;27.786;2022-07-29T09:47:50;5.43;;;2.40;;
63087;SDS011;49173;43.164;27.786;2022-07-29T09:50:16;4.73;;;2.30;;
63087;SDS011;49173;43.164;27.786;2022-07-29T09:52:51;8.32;;;2.30;;
63087;SDS011;49173;43.164;27.786;2022-07-29T09:55:24;4.00;;;2.33;;
63087;SDS011;49173;43.164;27.786;2022-07-29T09:57:50;6.22;;;2.17;;
63087;SDS011;49173;43.164;27.786;2022-07-29T10:00:20;8.68;;;2.00;;
63087;SDS011;49173;43.164;27.786;2022-07-29T10:02:48;4.90;;;2.20;;
63087;SDS011;49173;43.164;27.786;2022-07-29T10:05:17;14.57;;;2.40;;
63087;SDS011;49173;43.164;27.786;2022-07-29T10:07:52;5.20;;;2.00;;
63087;SDS011;49173;43.164;27.786;2022-07-29T10:13:09;11.05;;;2.28;;
63087;SDS011;49173;43.164;27.786;2022-07-29T10:15:39;5.20;;;2.35;;
63087;SDS011;49173;43.164;27.786;2022-07-29T10:18:09;6.72;;;2.38;;
63087;SDS011;49173;43.164;27.786;2022-07-29T10:20:37;3.92;;;2.00;;
63087;SDS011;49173;43.164;27.786;2022-07-29T10:23:04;3.83;;;1.90;;
63087;SDS011;49173;43.164;27.786;2022-07-29T10:25:31;5.20;;;2.03;;
63087;SDS011;49173;43.164;27.786;2022-07-29T10:27:57;4.50;;;2.20;;
63087;SDS011;49173;43.164;27.786;2022-07-29T10:30:24;7.10;;;2.15;;
63087;SDS011;49173;43.164;27.786;2022-07-29T10:35:44;5.53;;;2.10;;
63087;SDS011;49173;43.164;27.786;2022-07-29T10:41:27;8.77;;;2.13;;
63087;SDS011;49173;43.164;27.786;2022-07-29T10:44:00;7.00;;;2.20;;
63087;SDS011;49173;43.164;27.786;2022-07-29T10:46:29;8.38;;;2.50;;
63087;SDS011;49173;43.164;27.786;2022-07-29T10:49:04;7.03;;;2.22;;
63087;SDS011;49173;43.164;27.786;2022-07-29T10:51:59;3.90;;;2.28;;
63087;SDS011;49173;43.164;27.786;2022-07-29T10:59:42;5.38;;;2.40;;
63087;SDS011;49173;43.164;27.786;2022-07-29T11:07:25;3.70;;;2.10;;
63087;SDS011;49173;43.164;27.786;2022-07-29T11:15:08;5.70;;;2.10;;
63087;SDS011;49173;43.164;27.786;2022-07-29T11:23:28;4.35;;;1.80;;
63087;SDS011;49173;43.164;27.786;2022-07-29T11:28:42;3.95;;;2.05;;
63087;SDS011;49173;43.164;27.786;2022-07-29T11:31:19;5.47;;;2.20;;
63087;SDS011;49173;43.164;27.786;2022-07-29T11:39:31;3.67;;;2.10;;
63087;SDS011;49173;43.164;27.786;2022-07-29T11:45:00;3.45;;;2.20;;
63087;SDS011;49173;43.164;27.786;2022-07-29T11:47:42;3.67;;;2.10;;
63087;SDS011;49173;43.164;27.786;2022-07-29T11:50:14;3.63;;;1.95;;
63087;SDS011;49173;43.164;27.786;2022-07-29T11:52:44;4.70;;;2.30;;
63087;SDS011;49173;43.164;27.786;2022-07-29T11:55:17;3.40;;;1.80;;
63087;SDS011;49173;43.164;27.786;2022-07-29T11:57:53;7.28;;;2.55;;
63087;SDS011;49173;43.164;27.786;2022-07-29T12:02:54;3.60;;;1.98;;
63087;SDS011;49173;43.164;27.786;2022-07-29T12:05:30;2.67;;;1.70;;
63087;SDS011;49173;43.164;27.786;2022-07-29T12:08:07;3.45;;;1.95;;
63087;SDS011;49173;43.164;27.786;2022-07-29T12:10:38;3.05;;;1.90;;
63087;SDS011;49173;43.164;27.786;2022-07-29T12:13:06;7.65;;;2.17;;
63087;SDS011;49173;43.164;27.786;2022-07-29T12:15:34;5.00;;;1.95;;
63087;SDS011;49173;43.164;27.786;2022-07-29T12:18:15;4.10;;;2.20;;
63087;SDS011;49173;43.164;27.786;2022-07-29T12:20:44;5.47;;;2.30;;
63087;SDS011;49173;43.164;27.786;2022-07-29T12:23:11;3.88;;;2.15;;
63087;SDS011;49173;43.164;27.786;2022-07-29T12:25:39;5.28;;;1.92;;
63087;SDS011;49173;43.164;27.786;2022-07-29T12:28:08;3.25;;;1.90;;
63087;SDS011;49173;43.164;27.786;2022-07-29T12:30:44;4.88;;;1.98;;
63087;SDS011;49173;43.164;27.786;2022-07-29T12:33:24;7.18;;;1.77;;
63087;SDS011;49173;43.164;27.786;2022-07-29T12:35:55;8.07;;;2.08;;
63087;SDS011;49173;43.164;27.786;2022-07-29T12:38:27;4.03;;;2.00;;
63087;SDS011;49173;43.164;27.786;2022-07-29T12:40:55;4.43;;;1.90;;
63087;SDS011;49173;43.164;27.786;2022-07-29T12:43:23;4.53;;;2.05;;
63087;SDS011;49173;43.164;27.786;2022-07-29T12:45:53;5.53;;;1.83;;
63087;SDS011;49173;43.164;27.786;2022-07-29T12:48:37;4.25;;;1.90;;
63087;SDS011;49173;43.164;27.786;2022-07-29T12:51:07;3.60;;;1.90;;
63087;SDS011;49173;43.164;27.786;2022-07-29T12:53:35;4.72;;;1.80;;
63087;SDS011;49173;43.164;27.786;2022-07-29T12:56:03;4.75;;;1.90;;
63087;SDS011;49173;43.164;27.786;2022-07-29T12:58:31;7.47;;;2.27;;
63087;SDS011;49173;43.164;27.786;2022-07-29T13:01:11;4.07;;;2.08;;
63087;SDS011;49173;43.164;27.786;2022-07-29T13:03:43;3.50;;;1.92;;
63087;SDS011;49173;43.164;27.786;2022-07-29T13:06:33;7.78;;;2.00;;
63087;SDS011;49173;43.164;27.786;2022-07-29T13:09:13;2.75;;;1.80;;
63087;SDS011;49173;43.164;27.786;2022-07-29T13:11:43;5.10;;;1.98;;
63087;SDS011;49173;43.164;27.786;2022-07-29T13:17:06;5.65;;;2.08;;
63087;SDS011;49173;43.164;27.786;2022-07-29T13:22:36;5.10;;;1.95;;
63087;SDS011;49173;43.164;27.786;2022-07-29T13:25:02;3.53;;;2.00;;
63087;SDS011;49173;43.164;27.786;2022-07-29T13:27:35;3.25;;;1.90;;
63087;SDS011;49173;43.164;27.786;2022-07-29T13:30:05;4.90;;;2.08;;
63087;SDS011;49173;43.164;27.786;2022-07-29T13:32:34;3.42;;;2.05;;
63087;SDS011;49173;43.164;27.786;2022-07-29T13:35:03;3.80;;;2.08;;
63087;SDS011;49173;43.164;27.786;2022-07-29T13:37:33;8.15;;;2.10;;
63087;SDS011;49173;43.164;27.786;2022-07-29T13:40:03;7.70;;;2.55;;
63087;SDS011;49173;43.164;27.786;2022-07-29T13:44:59;7.63;;;1.90;;
63087;SDS011;49173;43.164;27.786;2022-07-29T13:47:28;3.78;;;1.95;;
63087;SDS011;49173;43.164;27.786;2022-07-29T13:49:57;6.53;;;2.13;;
63087;SDS011;49173;43.164;27.786;2022-07-29T13:52:27;6.25;;;2.08;;
63087;SDS011;49173;43.164;27.786;2022-07-29T13:54:53;4.97;;;2.10;;
63087;SDS011;49173;43.164;27.786;2022-07-29T13:57:19;4.00;;;2.03;;
63087;SDS011;49173;43.164;27.786;2022-07-29T14:02:16;3.53;;;2.10;;
63087;SDS011;49173;43.164;27.786;2022-07-29T14:04:47;6.28;;;2.28;;
63087;SDS011;49173;43.164;27.786;2022-07-29T14:07:16;5.15;;;1.95;;
63087;SDS011;49173;43.164;27.786;2022-07-29T14:09:42;4.35;;;2.10;;
63087;SDS011;49173;43.164;27.786;2022-07-29T14:12:12;3.78;;;2.03;;
63087;SDS011;49173;43.164;27.786;2022-07-29T14:14:38;7.70;;;2.25;;
63087;SDS011;49173;43.164;27.786;2022-07-29T14:17:04;6.53;;;2.55;;
63087;SDS011;49173;43.164;27.786;2022-07-29T14:19:31;5.53;;;2.25;;
63087;SDS011;49173;43.164;27.786;2022-07-29T14:22:04;4.82;;;2.40;;
63087;SDS011;49173;43.164;27.786;2022-07-29T14:24:31;5.87;;;2.30;;
63087;SDS011;49173;43.164;27.786;2022-07-29T14:27:01;3.30;;;2.03;;
63087;SDS011;49173;43.164;27.786;2022-07-29T14:29:30;5.20;;;2.00;;
63087;SDS011;49173;43.164;27.786;2022-07-29T14:31:56;5.78;;;2.03;;
63087;SDS011;49173;43.164;27.786;2022-07-29T14:34:24;3.42;;;1.92;;
63087;SDS011;49173;43.164;27.786;2022-07-29T14:36:52;4.75;;;2.28;;
63087;SDS011;49173;43.164;27.786;2022-07-29T14:39:21;3.90;;;2.25;;
63087;SDS011;49173;43.164;27.786;2022-07-29T14:41:50;4.57;;;2.00;;
63087;SDS011;49173;43.164;27.786;2022-07-29T14:44:17;3.13;;;1.90;;
63087;SDS011;49173;43.164;27.786;2022-07-29T14:46:45;9.45;;;2.20;;
63087;SDS011;49173;43.164;27.786;2022-07-29T14:49:13;5.78;;;2.03;;
63087;SDS011;49173;43.164;27.786;2022-07-29T14:51:40;7.40;;;2.53;;
63087;SDS011;49173;43.164;27.786;2022-07-29T14:54:07;4.72;;;2.13;;
63087;SDS011;49173;43.164;27.786;2022-07-29T14:56:35;6.82;;;2.10;;
63087;SDS011;49173;43.164;27.786;2022-07-29T14:59:04;3.97;;;2.20;;
63087;SDS011;49173;43.164;27.786;2022-07-29T15:01:31;5.60;;;2.08;;
63087;SDS011;49173;43.164;27.786;2022-07-29T15:03:59;5.97;;;2.40;;
63087;SDS011;49173;43.164;27.786;2022-07-29T15:06:27;5.18;;;2.28;;
63087;SDS011;49173;43.164;27.786;2022-07-29T15:08:59;5.60;;;2.60;;
63087;SDS011;49173;43.164;27.786;2022-07-29T15:11:25;4.53;;;2.47;;
63087;SDS011;49173;43.164;27.786;2022-07-29T15:13:53;6.05;;;2.20;;
63087;SDS011;49173;43.164;27.786;2022-07-29T15:16:19;3.80;;;2.40;;
63087;SDS011;49173;43.164;27.786;2022-07-29T15:18:47;4.50;;;2.50;;
63087;SDS011;49173;43.164;27.786;2022-07-29T15:23:41;9.65;;;2.83;;
63087;SDS011;49173;43.164;27.786;2022-07-29T15:26:09;3.97;;;2.15;;
63087;SDS011;49173;43.164;27.786;2022-07-29T15:28:35;6.38;;;2.80;;
63087;SDS011;49173;43.164;27.786;2022-07-29T15:31:05;6.38;;;2.63;;
63087;SDS011;49173;43.164;27.786;2022-07-29T15:33:33;6.93;;;2.50;;
63087;SDS011;49173;43.164;27.786;2022-07-29T15:35:59;6.88;;;2.50;;
63087;SDS011;49173;43.164;27.786;2022-07-29T15:38:26;7.00;;;2.70;;
63087;SDS011;49173;43.164;27.786;2022-07-29T15:40:55;6.03;;;2.50;;
63087;SDS011;49173;43.164;27.786;2022-07-29T15:43:23;5.40;;;2.35;;
63087;SDS011;49173;43.164;27.786;2022-07-29T15:45:52;5.60;;;2.38;;
63087;SDS011;49173;43.164;27.786;2022-07-29T15:48:37;7.43;;;2.60;;
63087;SDS011;49173;43.164;27.786;2022-07-29T15:51:04;8.45;;;2.50;;
63087;SDS011;49173;43.164;27.786;2022-07-29T15:53:31;6.32;;;2.63;;
63087;SDS011;49173;43.164;27.786;2022-07-29T15:56:01;5.70;;;2.20;;
63087;SDS011;49173;43.164;27.786;2022-07-29T15:58:27;3.63;;;2.28;;